sensor_id;sensor_type;location;lat;lon;timestamp;pressure;altitude;pressure_sealevel;temperature;humidity
40650;BME280;26342;42.826;23.992;2022-08-21T00:00:45;94702.16;;;18.69;100.00
40650;BME280;26342;42.826;23.992;2022-08-21T00:03:11;94694.50;;;18.63;100.00
40650;BME280;26342;42.826;23.992;2022-08-21T00:05:41;94698.00;;;18.72;100.00
40650;BME280;26342;42.826;23.992;2022-08-21T00:08:06;94690.69;;;18.73;100.00
40650;BME280;26342;42.826;23.992;2022-08-21T00:10:32;94687.06;;;18.68;100.00
40650;BME280;26342;42.826;23.992;2022-08-21T00:12:59;94679.06;;;18.72;100.00
40650;BME280;26342;42.826;23.992;2022-08-21T00:15:27;94679.22;;;18.76;100.00
40650;BME280;26342;42.826;23.992;2022-08-21T00:17:53;94687.47;;;18.79;100.00
40650;BME280;26342;42.826;23.992;2022-08-21T00:20:19;94686.63;;;18.87;100.00
40650;BME280;26342;42.826;23.992;2022-08-21T00:22:45;94681.91;;;18.84;100.00
40650;BME280;26342;42.826;23.992;2022-08-21T00:25:13;94684.09;;;18.91;100.00
40650;BME280;26342;42.826;23.992;2022-08-21T00:27:39;94686.63;;;18.96;100.00
40650;BME280;26342;42.826;23.992;2022-08-21T00:30:06;94690.13;;;18.96;100.00
40650;BME280;26342;42.826;23.992;2022-08-21T00:32:32;94692.66;;;18.93;100.00
40650;BME280;26342;42.826;23.992;2022-08-21T00:34:57;94697.66;;;18.82;100.00
40650;BME280;26342;42.826;23.992;2022-08-21T00:37:23;94694.31;;;18.77;100.00
40650;BME280;26342;42.826;23.992;2022-08-21T00:39:48;94685.56;;;18.80;100.00
40650;BME280;26342;42.826;23.992;2022-08-21T00:42:14;94691.13;;;18.83;100.00
40650;BME280;26342;42.826;23.992;2022-08-21T00:44:48;94703.19;;;18.86;100.00
40650;BME280;26342;42.826;23.992;2022-08-21T00:47:15;94703.19;;;18.86;100.00
40650;BME280;26342;42.826;23.992;2022-08-21T00:49:40;94697.03;;;18.77;100.00
40650;BME280;26342;42.826;23.992;2022-08-21T00:52:11;94712.59;;;18.80;100.00
40650;BME280;26342;42.826;23.992;2022-08-21T00:54:39;94717.97;;;18.88;100.00
40650;BME280;26342;42.826;23.992;2022-08-21T00:57:10;94719.88;;;18.88;100.00
40650;BME280;26342;42.826;23.992;2022-08-21T00:59:38;94716.66;;;18.94;100.00
40650;BME280;26342;42.826;23.992;2022-08-21T01:02:06;94725.84;;;19.02;100.00
40650;BME280;26342;42.826;23.992;2022-08-21T01:04:33;94737.78;;;19.01;100.00
40650;BME280;26342;42.826;23.992;2022-08-21T01:06:58;94736.81;;;19.06;100.00
40650;BME280;26342;42.826;23.992;2022-08-21T01:09:24;94733.47;;;19.09;100.00
40650;BME280;26342;42.826;23.992;2022-08-21T01:11:50;94741.41;;;19.14;100.00
40650;BME280;26342;42.826;23.992;2022-08-21T01:14:16;94744.38;;;19.21;100.00
40650;BME280;26342;42.826;23.992;2022-08-21T01:16:50;94751.50;;;19.25;100.00
40650;BME280;26342;42.826;23.992;2022-08-21T01:19:18;94747.22;;;19.24;100.00
40650;BME280;26342;42.826;23.992;2022-08-21T01:21:45;94744.13;;;19.35;100.00
40650;BME280;26342;42.826;23.992;2022-08-21T01:24:11;94737.94;;;19.34;100.00
40650;BME280;26342;42.826;23.992;2022-08-21T01:26:37;94744.91;;;19.35;100.00
40650;BME280;26342;42.826;23.992;2022-08-21T01:29:51;94751.47;;;19.34;100.00
40650;BME280;26342;42.826;23.992;2022-08-21T01:32:16;94748.81;;;19.25;100.00
40650;BME280;26342;42.826;23.992;2022-08-21T01:34:45;94740.13;;;19.11;100.00
40650;BME280;26342;42.826;23.992;2022-08-21T01:37:12;94748.44;;;19.06;100.00
40650;BME280;26342;42.826;23.992;2022-08-21T01:39:39;94741.44;;;19.05;100.00
40650;BME280;26342;42.826;23.992;2022-08-21T01:42:06;94743.66;;;19.12;100.00
40650;BME280;26342;42.826;23.992;2022-08-21T01:44:32;94747.53;;;18.93;100.00
40650;BME280;26342;42.826;23.992;2022-08-21T01:46:59;94744.25;;;18.62;100.00
40650;BME280;26342;42.826;23.992;2022-08-21T01:49:26;94740.78;;;18.53;100.00
40650;BME280;26342;42.826;23.992;2022-08-21T01:51:52;94733.34;;;18.50;100.00
40650;BME280;26342;42.826;23.992;2022-08-21T01:54:17;94736.19;;;18.53;100.00
40650;BME280;26342;42.826;23.992;2022-08-21T01:56:46;94727.91;;;18.58;100.00
40650;BME280;26342;42.826;23.992;2022-08-21T01:59:14;94722.66;;;18.62;100.00
40650;BME280;26342;42.826;23.992;2022-08-21T02:01:40;94717.56;;;18.60;100.00
40650;BME280;26342;42.826;23.992;2022-08-21T02:04:07;94727.25;;;18.70;100.00
40650;BME280;26342;42.826;23.992;2022-08-21T02:06:33;94733.75;;;18.78;100.00
40650;BME280;26342;42.826;23.992;2022-08-21T02:09:00;94726.75;;;18.77;100.00
40650;BME280;26342;42.826;23.992;2022-08-21T02:11:25;94726.59;;;18.82;100.00
40650;BME280;26342;42.826;23.992;2022-08-21T02:13:51;94733.38;;;18.88;100.00
40650;BME280;26342;42.826;23.992;2022-08-21T02:16:16;94735.63;;;18.86;100.00
40650;BME280;26342;42.826;23.992;2022-08-21T02:18:42;94742.63;;;18.87;100.00
40650;BME280;26342;42.826;23.992;2022-08-21T02:21:08;94742.78;;;18.90;100.00
40650;BME280;26342;42.826;23.992;2022-08-21T02:23:34;94733.66;;;18.95;100.00
40650;BME280;26342;42.826;23.992;2022-08-21T02:26:01;94732.88;;;18.94;100.00
40650;BME280;26342;42.826;23.992;2022-08-21T02:28:27;94742.75;;;18.99;100.00
40650;BME280;26342;42.826;23.992;2022-08-21T02:30:55;94753.38;;;18.95;100.00
40650;BME280;26342;42.826;23.992;2022-08-21T02:33:21;94738.50;;;18.89;100.00
40650;BME280;26342;42.826;23.992;2022-08-21T02:35:47;94746.56;;;18.98;100.00
40650;BME280;26342;42.826;23.992;2022-08-21T02:38:16;94743.28;;;18.84;100.00
40650;BME280;26342;42.826;23.992;2022-08-21T02:40:43;94743.00;;;18.68;100.00
40650;BME280;26342;42.826;23.992;2022-08-21T02:43:09;94751.56;;;18.61;100.00
40650;BME280;26342;42.826;23.992;2022-08-21T02:45:35;94756.06;;;18.57;100.00
40650;BME280;26342;42.826;23.992;2022-08-21T02:48:05;94754.97;;;18.50;100.00
40650;BME280;26342;42.826;23.992;2022-08-21T02:50:33;94750.34;;;18.50;100.00
40650;BME280;26342;42.826;23.992;2022-08-21T02:52:59;94760.53;;;18.45;100.00
40650;BME280;26342;42.826;23.992;2022-08-21T02:55:27;94769.75;;;18.44;100.00
40650;BME280;26342;42.826;23.992;2022-08-21T02:57:54;94765.47;;;18.42;100.00
40650;BME280;26342;42.826;23.992;2022-08-21T03:00:21;94768.78;;;18.31;100.00
40650;BME280;26342;42.826;23.992;2022-08-21T03:02:48;94765.63;;;18.29;100.00
40650;BME280;26342;42.826;23.992;2022-08-21T03:05:14;94763.41;;;18.22;100.00
40650;BME280;26342;42.826;23.992;2022-08-21T03:07:41;94765.16;;;18.27;100.00
40650;BME280;26342;42.826;23.992;2022-08-21T03:10:08;94750.56;;;18.19;100.00
40650;BME280;26342;42.826;23.992;2022-08-21T03:12:34;94761.81;;;18.30;100.00
40650;BME280;26342;42.826;23.992;2022-08-21T03:15:04;94753.72;;;18.30;100.00
40650;BME280;26342;42.826;23.992;2022-08-21T03:17:31;94752.59;;;18.31;100.00
40650;BME280;26342;42.826;23.992;2022-08-21T03:19:57;94747.97;;;18.31;100.00
40650;BME280;26342;42.826;23.992;2022-08-21T03:22:23;94746.41;;;18.30;100.00
40650;BME280;26342;42.826;23.992;2022-08-21T03:24:48;94741.63;;;18.36;100.00
40650;BME280;26342;42.826;23.992;2022-08-21T03:27:14;94740.50;;;18.37;100.00
40650;BME280;26342;42.826;23.992;2022-08-21T03:29:40;94755.13;;;18.45;100.00
40650;BME280;26342;42.826;23.992;2022-08-21T03:32:06;94750.34;;;18.50;100.00
40650;BME280;26342;42.826;23.992;2022-08-21T03:34:35;94743.16;;;18.54;100.00
40650;BME280;26342;42.826;23.992;2022-08-21T03:37:00;94741.28;;;18.46;100.00
40650;BME280;26342;42.826;23.992;2022-08-21T03:39:26;94743.03;;;18.51;100.00
40650;BME280;26342;42.826;23.992;2022-08-21T03:41:52;94743.03;;;18.51;100.00
40650;BME280;26342;42.826;23.992;2022-08-21T03:44:18;94737.47;;;18.47;100.00
40650;BME280;26342;42.826;23.992;2022-08-21T03:46:43;94754.16;;;18.40;100.00
40650;BME280;26342;42.826;23.992;2022-08-21T03:49:08;94733.84;;;18.34;100.00
40650;BME280;26342;42.826;23.992;2022-08-21T03:51:34;94732.88;;;18.39;100.00
40650;BME280;26342;42.826;23.992;2022-08-21T03:54:00;94736.06;;;18.41;100.00
40650;BME280;26342;42.826;23.992;2022-08-21T03:56:26;94732.88;;;18.39;100.00
40650;BME280;26342;42.826;23.992;2022-08-21T03:58:51;94726.84;;;18.42;100.00
40650;BME280;26342;42.826;23.992;2022-08-21T04:01:17;94727.94;;;18.50;100.00
40650;BME280;26342;42.826;23.992;2022-08-21T04:03:42;94736.19;;;18.53;100.00
40650;BME280;26342;42.826;23.992;2022-08-21T04:06:08;94737.59;;;18.59;100.00
40650;BME280;26342;42.826;23.992;2022-08-21T04:08:33;94736.47;;;18.69;100.00
40650;BME280;26342;42.826;23.992;2022-08-21T04:10:59;94736.63;;;18.64;100.00
40650;BME280;26342;42.826;23.992;2022-08-21T04:13:25;94733.00;;;18.68;100.00
40650;BME280;26342;42.826;23.992;2022-08-21T04:15:53;94733.44;;;18.62;100.00
40650;BME280;26342;42.826;23.992;2022-08-21T04:18:19;94719.97;;;18.53;100.00
40650;BME280;26342;42.826;23.992;2022-08-21T04:20:46;94724.13;;;18.51;100.00
40650;BME280;26342;42.826;23.992;2022-08-21T04:23:13;94716.81;;;18.51;100.00
40650;BME280;26342;42.826;23.992;2022-08-21T04:25:38;94718.22;;;18.57;100.00
40650;BME280;26342;42.826;23.992;2022-08-21T04:28:03;94722.34;;;18.55;100.00
40650;BME280;26342;42.826;23.992;2022-08-21T04:30:29;94722.50;;;18.58;100.00
40650;BME280;26342;42.826;23.992;2022-08-21T04:32:56;94726.34;;;18.66;100.00
40650;BME280;26342;42.826;23.992;2022-08-21T04:35:22;94716.63;;;18.65;100.00
40650;BME280;26342;42.826;23.992;2022-08-21T04:37:49;94711.22;;;18.65;100.00
40650;BME280;26342;42.826;23.992;2022-08-21T04:40:16;94720.59;;;18.67;100.00
40650;BME280;26342;42.826;23.992;2022-08-21T04:42:51;94712.50;;;18.67;100.00
40650;BME280;26342;42.826;23.992;2022-08-21T04:45:23;94711.22;;;18.65;100.00
40650;BME280;26342;42.826;23.992;2022-08-21T04:47:54;94710.72;;;18.72;100.00
40650;BME280;26342;42.826;23.992;2022-08-21T04:50:22;94701.34;;;18.69;100.00
40650;BME280;26342;42.826;23.992;2022-08-21T04:52:49;94711.84;;;18.71;100.00
40650;BME280;26342;42.826;23.992;2022-08-21T04:55:16;94711.19;;;18.74;100.00
40650;BME280;26342;42.826;23.992;2022-08-21T04:57:43;94714.19;;;18.81;100.00
40650;BME280;26342;42.826;23.992;2022-08-21T05:00:09;94712.56;;;18.88;100.00
40650;BME280;26342;42.826;23.992;2022-08-21T05:02:37;94707.81;;;18.85;100.00
40650;BME280;26342;42.826;23.992;2022-08-21T05:05:03;94705.38;;;18.92;100.00
40650;BME280;26342;42.826;23.992;2022-08-21T05:07:29;94707.91;;;18.98;100.00
40650;BME280;26342;42.826;23.992;2022-08-21T05:09:56;94689.66;;;18.86;100.00
40650;BME280;26342;42.826;23.992;2022-08-21T05:12:22;94701.91;;;18.92;100.00
40650;BME280;26342;42.826;23.992;2022-08-21T05:14:48;94699.31;;;18.95;100.00
40650;BME280;26342;42.826;23.992;2022-08-21T05:17:13;94697.91;;;18.98;100.00
40650;BME280;26342;42.826;23.992;2022-08-21T05:19:39;94705.34;;;19.01;100.00
40650;BME280;26342;42.826;23.992;2022-08-21T05:22:05;94699.88;;;19.10;100.00
40650;BME280;26342;42.826;23.992;2022-08-21T05:24:30;94697.34;;;19.13;100.00
40650;BME280;26342;42.826;23.992;2022-08-21T05:26:56;94700.31;;;19.20;100.00
40650;BME280;26342;42.826;23.992;2022-08-21T05:29:22;94704.94;;;19.20;100.00
40650;BME280;26342;42.826;23.992;2022-08-21T05:31:47;94705.69;;;19.29;100.00
40650;BME280;26342;42.826;23.992;2022-08-21T05:34:14;94698.34;;;19.30;100.00
40650;BME280;26342;42.826;23.992;2022-08-21T05:36:40;94704.56;;;19.30;100.00
40650;BME280;26342;42.826;23.992;2022-08-21T05:39:05;94689.38;;;19.38;100.00
40650;BME280;26342;42.826;23.992;2022-08-21T05:41:31;94689.19;;;19.43;100.00
40650;BME280;26342;42.826;23.992;2022-08-21T05:43:56;94693.16;;;19.45;100.00
40650;BME280;26342;42.826;23.992;2022-08-21T05:46:21;94690.91;;;19.47;100.00
40650;BME280;26342;42.826;23.992;2022-08-21T05:48:47;94689.44;;;19.50;100.00
40650;BME280;26342;42.826;23.992;2022-08-21T05:51:14;94685.75;;;19.55;100.00
40650;BME280;26342;42.826;23.992;2022-08-21T05:53:41;94671.28;;;19.50;100.00
40650;BME280;26342;42.826;23.992;2022-08-21T05:56:10;94696.09;;;19.61;100.00
40650;BME280;26342;42.826;23.992;2022-08-21T05:58:36;94688.88;;;19.65;100.00
40650;BME280;26342;42.826;23.992;2022-08-21T06:01:02;94675.75;;;19.76;100.00
40650;BME280;26342;42.826;23.992;2022-08-21T06:03:31;94690.66;;;19.82;100.00
40650;BME280;26342;42.826;23.992;2022-08-21T06:05:58;94694.31;;;19.86;100.00
40650;BME280;26342;42.826;23.992;2022-08-21T06:08:24;94685.06;;;19.87;100.00
40650;BME280;26342;42.826;23.992;2022-08-21T06:10:51;94685.66;;;19.93;100.00
40650;BME280;26342;42.826;23.992;2022-08-21T06:13:18;94691.25;;;19.88;100.00
40650;BME280;26342;42.826;23.992;2022-08-21T06:15:44;94677.91;;;19.83;100.00
40650;BME280;26342;42.826;23.992;2022-08-21T06:18:09;94686.63;;;19.88;100.00
40650;BME280;26342;42.826;23.992;2022-08-21T06:20:35;94697.38;;;19.97;100.00
40650;BME280;26342;42.826;23.992;2022-08-21T06:23:02;94701.03;;;20.01;100.00
40650;BME280;26342;42.826;23.992;2022-08-21T06:25:28;94706.56;;;20.04;100.00
40650;BME280;26342;42.826;23.992;2022-08-21T06:28:07;94711.53;;;20.02;100.00
40650;BME280;26342;42.826;23.992;2022-08-21T06:30:34;94707.22;;;20.01;100.00
40650;BME280;26342;42.826;23.992;2022-08-21T06:33:01;94712.44;;;20.06;100.00
40650;BME280;26342;42.826;23.992;2022-08-21T06:35:29;94707.03;;;20.06;100.00
40650;BME280;26342;42.826;23.992;2022-08-21T06:37:56;94710.19;;;20.08;100.00
40650;BME280;26342;42.826;23.992;2022-08-21T06:40:22;94716.44;;;20.21;100.00
40650;BME280;26342;42.826;23.992;2022-08-21T06:42:47;94719.28;;;20.25;100.00
40650;BME280;26342;42.826;23.992;2022-08-21T06:45:13;94715.09;;;20.27;100.00
40650;BME280;26342;42.826;23.992;2022-08-21T06:47:39;94719.44;;;20.41;100.00
40650;BME280;26342;42.826;23.992;2022-08-21T06:50:05;94721.81;;;20.42;100.00
40650;BME280;26342;42.826;23.992;2022-08-21T06:52:33;94724.13;;;20.52;100.00
40650;BME280;26342;42.826;23.992;2022-08-21T06:54:59;94732.63;;;20.63;100.00
40650;BME280;26342;42.826;23.992;2022-08-21T06:57:24;94715.69;;;20.66;100.00
40650;BME280;26342;42.826;23.992;2022-08-21T06:59:51;94721.34;;;20.73;100.00
40650;BME280;26342;42.826;23.992;2022-08-21T07:02:17;94721.59;;;20.80;100.00
40650;BME280;26342;42.826;23.992;2022-08-21T07:04:43;94725.88;;;20.81;100.00
40650;BME280;26342;42.826;23.992;2022-08-21T07:07:08;94734.13;;;20.85;100.00
40650;BME280;26342;42.826;23.992;2022-08-21T07:09:34;94723.50;;;20.92;100.00
40650;BME280;26342;42.826;23.992;2022-08-21T07:11:59;94728.63;;;20.94;100.00
40650;BME280;26342;42.826;23.992;2022-08-21T07:14:28;94726.47;;;20.99;100.00
40650;BME280;26342;42.826;23.992;2022-08-21T07:16:54;94734.25;;;21.01;100.00
40650;BME280;26342;42.826;23.992;2022-08-21T07:19:19;94725.81;;;21.02;100.00
40650;BME280;26342;42.826;23.992;2022-08-21T07:21:45;94720.25;;;21.11;100.00
40650;BME280;26342;42.826;23.992;2022-08-21T07:24:13;94722.06;;;21.19;100.00
40650;BME280;26342;42.826;23.992;2022-08-21T07:26:38;94723.75;;;21.24;100.00
40650;BME280;26342;42.826;23.992;2022-08-21T07:29:04;94716.88;;;21.26;100.00
40650;BME280;26342;42.826;23.992;2022-08-21T07:31:30;94714.94;;;21.39;100.00
40650;BME280;26342;42.826;23.992;2022-08-21T07:33:56;94720.13;;;21.56;100.00
40650;BME280;26342;42.826;23.992;2022-08-21T07:36:22;94711.84;;;21.77;100.00
40650;BME280;26342;42.826;23.992;2022-08-21T07:38:47;94719.63;;;21.79;100.00
40650;BME280;26342;42.826;23.992;2022-08-21T07:41:22;94724.47;;;21.97;100.00
40650;BME280;26342;42.826;23.992;2022-08-21T07:44:24;94715.91;;;22.23;100.00
40650;BME280;26342;42.826;23.992;2022-08-21T07:47:40;94714.03;;;22.55;100.00
40650;BME280;26342;42.826;23.992;2022-08-21T07:50:06;94718.44;;;22.60;100.00
40650;BME280;26342;42.826;23.992;2022-08-21T07:52:33;94714.13;;;22.75;100.00
40650;BME280;26342;42.826;23.992;2022-08-21T07:55:01;94713.75;;;22.89;100.00
40650;BME280;26342;42.826;23.992;2022-08-21T07:57:26;94712.34;;;22.95;99.43
40650;BME280;26342;42.826;23.992;2022-08-21T07:59:52;94707.94;;;23.06;98.63
40650;BME280;26342;42.826;23.992;2022-08-21T08:02:27;94710.06;;;23.12;96.12
40650;BME280;26342;42.826;23.992;2022-08-21T08:04:53;94714.69;;;23.28;95.52
40650;BME280;26342;42.826;23.992;2022-08-21T08:07:19;94714.13;;;23.54;93.19
40650;BME280;26342;42.826;23.992;2022-08-21T08:09:45;94711.47;;;23.73;92.76
40650;BME280;26342;42.826;23.992;2022-08-21T08:12:11;94714.19;;;23.92;90.21
40650;BME280;26342;42.826;23.992;2022-08-21T08:14:36;94703.09;;;24.01;90.09
40650;BME280;26342;42.826;23.992;2022-08-21T08:17:02;94708.34;;;24.29;91.39
40650;BME280;26342;42.826;23.992;2022-08-21T08:19:28;94699.44;;;24.52;90.57
40650;BME280;26342;42.826;23.992;2022-08-21T08:21:54;94701.41;;;24.74;89.56
40650;BME280;26342;42.826;23.992;2022-08-21T08:24:20;94695.72;;;24.83;88.34
40650;BME280;26342;42.826;23.992;2022-08-21T08:26:46;94695.59;;;24.98;86.14
40650;BME280;26342;42.826;23.992;2022-08-21T08:29:12;94695.13;;;25.16;84.23
40650;BME280;26342;42.826;23.992;2022-08-21T08:31:37;94695.28;;;25.26;81.62
40650;BME280;26342;42.826;23.992;2022-08-21T08:34:03;94693.78;;;25.29;82.90
40650;BME280;26342;42.826;23.992;2022-08-21T08:36:35;94677.13;;;25.38;80.86
40650;BME280;26342;42.826;23.992;2022-08-21T08:39:03;94677.06;;;25.34;82.26
40650;BME280;26342;42.826;23.992;2022-08-21T08:41:29;94683.03;;;25.43;82.10
40650;BME280;26342;42.826;23.992;2022-08-21T08:43:59;94688.34;;;25.59;82.92
40650;BME280;26342;42.826;23.992;2022-08-21T08:46:40;94677.47;;;25.63;78.99
40650;BME280;26342;42.826;23.992;2022-08-21T08:49:11;94679.31;;;25.81;81.07
40650;BME280;26342;42.826;23.992;2022-08-21T08:51:48;94685.84;;;26.03;76.64
40650;BME280;26342;42.826;23.992;2022-08-21T08:54:32;94671.94;;;26.15;76.65
40650;BME280;26342;42.826;23.992;2022-08-21T08:57:03;94665.63;;;26.45;73.42
40650;BME280;26342;42.826;23.992;2022-08-21T08:59:38;94674.91;;;26.74;74.90
40650;BME280;26342;42.826;23.992;2022-08-21T09:02:04;94669.41;;;27.11;74.39
40650;BME280;26342;42.826;23.992;2022-08-21T09:04:31;94665.69;;;27.37;72.41
40650;BME280;26342;42.826;23.992;2022-08-21T09:07:16;94661.91;;;27.63;69.55
40650;BME280;26342;42.826;23.992;2022-08-21T09:10:02;94664.03;;;27.84;71.10
40650;BME280;26342;42.826;23.992;2022-08-21T09:12:55;94667.66;;;28.09;65.40
40650;BME280;26342;42.826;23.992;2022-08-21T09:15:29;94663.28;;;27.91;62.97
40650;BME280;26342;42.826;23.992;2022-08-21T09:20:49;94668.25;;;27.71;63.78
40650;BME280;26342;42.826;23.992;2022-08-21T09:23:55;94661.81;;;27.49;63.65
40650;BME280;26342;42.826;23.992;2022-08-21T09:26:24;94658.91;;;27.20;65.02
40650;BME280;26342;42.826;23.992;2022-08-21T09:28:58;94663.16;;;27.11;65.53
40650;BME280;26342;42.826;23.992;2022-08-21T09:31:31;94662.63;;;27.02;65.71
40650;BME280;26342;42.826;23.992;2022-08-21T09:34:09;94657.78;;;26.84;66.94
40650;BME280;26342;42.826;23.992;2022-08-21T09:36:41;94649.34;;;26.56;67.59
40650;BME280;26342;42.826;23.992;2022-08-21T09:39:09;94660.59;;;26.47;67.83
40650;BME280;26342;42.826;23.992;2022-08-21T09:41:36;94658.78;;;26.28;68.17
40650;BME280;26342;42.826;23.992;2022-08-21T09:44:03;94652.13;;;26.26;69.06
40650;BME280;26342;42.826;23.992;2022-08-21T09:46:29;94658.94;;;26.39;69.90
40650;BME280;26342;42.826;23.992;2022-08-21T09:49:00;94657.16;;;26.57;71.07
40650;BME280;26342;42.826;23.992;2022-08-21T09:51:29;94655.97;;;26.55;69.29
40650;BME280;26342;42.826;23.992;2022-08-21T09:54:19;94650.53;;;26.58;68.41
40650;BME280;26342;42.826;23.992;2022-08-21T09:56:58;94651.25;;;26.52;68.51
40650;BME280;26342;42.826;23.992;2022-08-21T09:59:43;94650.78;;;26.46;71.60
40650;BME280;26342;42.826;23.992;2022-08-21T10:05:17;94642.34;;;26.62;69.50
40650;BME280;26342;42.826;23.992;2022-08-21T10:07:43;94647.88;;;26.65;68.21
40650;BME280;26342;42.826;23.992;2022-08-21T10:10:18;94646.69;;;26.66;67.91
40650;BME280;26342;42.826;23.992;2022-08-21T10:18:05;94629.66;;;26.39;69.65
40650;BME280;26342;42.826;23.992;2022-08-21T10:20:40;94640.59;;;26.39;70.75
40650;BME280;26342;42.826;23.992;2022-08-21T10:31:06;94636.09;;;26.61;69.97
40650;BME280;26342;42.826;23.992;2022-08-21T10:36:16;94632.69;;;26.75;70.02
40650;BME280;26342;42.826;23.992;2022-08-21T10:46:57;94624.63;;;27.48;66.44
40650;BME280;26342;42.826;23.992;2022-08-21T10:54:52;94625.22;;;27.75;66.15
40650;BME280;26342;42.826;23.992;2022-08-21T10:57:41;94621.31;;;27.76;67.02
40650;BME280;26342;42.826;23.992;2022-08-21T11:00:13;94610.41;;;27.90;65.20
40650;BME280;26342;42.826;23.992;2022-08-21T11:05:17;94612.06;;;28.13;60.28
40650;BME280;26342;42.826;23.992;2022-08-21T11:18:56;94589.00;;;28.31;59.45
40650;BME280;26342;42.826;23.992;2022-08-21T11:21:44;94592.16;;;28.48;60.86
40650;BME280;26342;42.826;23.992;2022-08-21T11:24:54;94590.22;;;28.55;61.43
40650;BME280;26342;42.826;23.992;2022-08-21T11:27:36;94583.91;;;28.41;61.13
40650;BME280;26342;42.826;23.992;2022-08-21T11:30:05;94587.00;;;28.25;60.48
40650;BME280;26342;42.826;23.992;2022-08-21T11:46:28;94569.31;;;28.04;62.02
40650;BME280;26342;42.826;23.992;2022-08-21T11:49:10;94563.41;;;28.02;61.16
40650;BME280;26342;42.826;23.992;2022-08-21T11:54:41;94556.00;;;28.10;61.29
40650;BME280;26342;42.826;23.992;2022-08-21T12:02:42;94548.59;;;28.21;60.47
40650;BME280;26342;42.826;23.992;2022-08-21T12:05:21;94540.34;;;28.25;59.44
40650;BME280;26342;42.826;23.992;2022-08-21T12:07:47;94541.94;;;28.22;59.77
40650;BME280;26342;42.826;23.992;2022-08-21T12:10:19;94550.94;;;28.23;61.55
40650;BME280;26342;42.826;23.992;2022-08-21T12:13:28;94551.31;;;28.14;59.70
40650;BME280;26342;42.826;23.992;2022-08-21T12:15:51;94548.16;;;28.12;59.81
40650;BME280;26342;42.826;23.992;2022-08-21T12:18:29;94551.72;;;28.13;60.09
40650;BME280;26342;42.826;23.992;2022-08-21T12:21:21;94547.00;;;28.13;60.80
40650;BME280;26342;42.826;23.992;2022-08-21T12:28:38;94547.00;;;28.13;58.94
40650;BME280;26342;42.826;23.992;2022-08-21T12:31:17;94543.06;;;28.10;58.67
40650;BME280;26342;42.826;23.992;2022-08-21T12:33:50;94543.47;;;28.16;60.46
40650;BME280;26342;42.826;23.992;2022-08-21T12:36:20;94538.81;;;28.20;59.20
40650;BME280;26342;42.826;23.992;2022-08-21T12:39:04;94538.78;;;28.17;57.20
40650;BME280;26342;42.826;23.992;2022-08-21T12:44:38;94536.78;;;28.03;59.22
40650;BME280;26342;42.826;23.992;2022-08-21T12:47:14;94541.88;;;27.97;57.81
40650;BME280;26342;42.826;23.992;2022-08-21T12:52:25;94536.41;;;28.01;59.56
40650;BME280;26342;42.826;23.992;2022-08-21T12:54:53;94544.63;;;28.08;60.30
40650;BME280;26342;42.826;23.992;2022-08-21T12:57:22;94544.22;;;28.02;59.21
40650;BME280;26342;42.826;23.992;2022-08-21T12:59:53;94549.69;;;27.92;60.29
40650;BME280;26342;42.826;23.992;2022-08-21T13:02:24;94551.25;;;27.82;61.14
40650;BME280;26342;42.826;23.992;2022-08-21T13:04:55;94547.69;;;27.74;61.16
40650;BME280;26342;42.826;23.992;2022-08-21T13:07:26;94550.00;;;27.69;62.22
40650;BME280;26342;42.826;23.992;2022-08-21T13:10:29;94552.69;;;27.62;61.97
40650;BME280;26342;42.826;23.992;2022-08-21T13:12:47;94540.53;;;27.52;61.78
40650;BME280;26342;42.826;23.992;2022-08-21T13:15:13;94547.91;;;27.44;63.16
40650;BME280;26342;42.826;23.992;2022-08-21T13:17:42;94550.66;;;27.44;62.14
40650;BME280;26342;42.826;23.992;2022-08-21T13:20:23;94552.53;;;27.30;63.72
40650;BME280;26342;42.826;23.992;2022-08-21T13:22:49;94541.16;;;27.24;64.34
40650;BME280;26342;42.826;23.992;2022-08-21T13:25:17;94549.78;;;27.30;62.96
40650;BME280;26342;42.826;23.992;2022-08-21T13:30:30;94543.44;;;27.11;63.98
40650;BME280;26342;42.826;23.992;2022-08-21T13:33:01;94526.84;;;26.93;65.90
40650;BME280;26342;42.826;23.992;2022-08-21T13:35:29;94541.38;;;26.97;65.03
40650;BME280;26342;42.826;23.992;2022-08-21T13:37:56;94537.06;;;26.96;66.10
40650;BME280;26342;42.826;23.992;2022-08-21T13:40:26;94543.28;;;26.93;65.80
40650;BME280;26342;42.826;23.992;2022-08-21T13:42:53;94535.91;;;26.97;64.66
40650;BME280;26342;42.826;23.992;2022-08-21T13:45:29;94530.81;;;26.96;65.29
40650;BME280;26342;42.826;23.992;2022-08-21T13:47:56;94533.16;;;26.97;64.75
40650;BME280;26342;42.826;23.992;2022-08-21T13:50:26;94527.69;;;26.97;65.15
40650;BME280;26342;42.826;23.992;2022-08-21T13:53:01;94520.25;;;26.98;65.72
40650;BME280;26342;42.826;23.992;2022-08-21T13:55:39;94525.03;;;27.05;64.46
40650;BME280;26342;42.826;23.992;2022-08-21T13:58:05;94515.56;;;26.95;65.10
40650;BME280;26342;42.826;23.992;2022-08-21T14:00:34;94521.03;;;26.98;65.12
40650;BME280;26342;42.826;23.992;2022-08-21T14:03:09;94526.13;;;27.00;66.34
40650;BME280;26342;42.826;23.992;2022-08-21T14:05:43;94522.59;;;26.99;66.69
40650;BME280;26342;42.826;23.992;2022-08-21T14:08:14;94514.78;;;27.02;65.42
40650;BME280;26342;42.826;23.992;2022-08-21T14:10:44;94523.44;;;27.04;66.96
40650;BME280;26342;42.826;23.992;2022-08-21T14:13:43;94516.03;;;27.04;65.29
40650;BME280;26342;42.826;23.992;2022-08-21T14:16:13;94515.59;;;27.02;64.44
40650;BME280;26342;42.826;23.992;2022-08-21T14:18:52;94519.06;;;26.95;65.50